Portada
METAR-TAF:

METAR-TAF

Aeroports :

Vijayawada, Índia

latitud: 16-31-44N, longitud: 80-47-45E, altitud: 25 m

Observació

L'informe es va fer fa 39 minuts, a les 16:30 UTC
Vent 9 kt del Oest
Temperatura 29°C
Humitat 74%
Pressió 1001 hPa
Visibilitat: 6000 m
Núvols disperses a una alçada de 2000 ft
Cel ennuvolat a una alçada de 8000 ft

METAR: VOBZ 251630Z 27009KT 6000 SCT020 BKN080 29/24 Q1001 NOSIG

Hora: 22:39 (17:09 UTC)

Pronòstic

L'informe es va fer fa 3 hores i 9 minuts, a les 14:00 UTC
Pronòstic vàlid del 25 a les 15 UTC al 25 a les 24 UTC
Vent 15 kt del Oest amb ràfegues de 25 kt
Visibilitat: 6000 m
Núvols disperses a una alçada de 1500 ft
Cel ennuvolat a una alçada de 8000 ft
Temporalment
l' 25 a les 16 UTC al 25 a les 22 UTC
Visibilitat: 3000 m
Núvols disperses a una alçada de 1000 ft
Núvols disperses a una alçada de 1500 ft
Cel cobert a una alçada de 8000 ft
plugim, boirina,

TAF: VOBZ 251400Z 2515/2524 28015G25KT 6000 SCT015 BKN080 TEMPO 2516/2522 3000 -DZ BR SCT010 SCT015 OVC080

Observacions i pronòstics meteorològics de més de 4000 aeroports (METAR i TAF).

Les estacions disponibles són els punts grocs i vermells al mapa.

Posi el ratolí al punt desitjat per veure el nom de l'estació.

Feu clic per veure les observacions i els pronòstics meteorològics.

Per canviar el mapa: feu clic els botons verds amb una creu de color negre per apropar; al botó verd amb un guió per allunyar la imatge; o en les fletxes verdes per a mapes adjacents.


METAR-TAF: